sensor_id;sensor_type;location;lat;lon;timestamp;P1;durP1;ratioP1;P2;durP2;ratioP2
18364;SDS011;9309;52.126;11.616;2022-11-30T00:00:47;140.10;;;33.20;;
18364;SDS011;9309;52.126;11.616;2022-11-30T00:03:14;161.47;;;34.17;;
18364;SDS011;9309;52.126;11.616;2022-11-30T00:05:42;143.07;;;33.57;;
18364;SDS011;9309;52.126;11.616;2022-11-30T00:08:09;179.10;;;33.57;;
18364;SDS011;9309;52.126;11.616;2022-11-30T00:10:36;151.43;;;32.70;;
18364;SDS011;9309;52.126;11.616;2022-11-30T00:13:03;197.47;;;34.37;;
18364;SDS011;9309;52.126;11.616;2022-11-30T00:15:30;145.83;;;34.57;;
18364;SDS011;9309;52.126;11.616;2022-11-30T00:17:57;218.53;;;35.07;;
18364;SDS011;9309;52.126;11.616;2022-11-30T00:20:24;165.87;;;34.00;;
18364;SDS011;9309;52.126;11.616;2022-11-30T00:22:55;173.70;;;36.27;;
18364;SDS011;9309;52.126;11.616;2022-11-30T00:25:22;213.53;;;36.17;;
18364;SDS011;9309;52.126;11.616;2022-11-30T00:27:50;168.40;;;33.10;;
18364;SDS011;9309;52.126;11.616;2022-11-30T00:30:17;145.30;;;34.00;;
18364;SDS011;9309;52.126;11.616;2022-11-30T00:32:44;158.00;;;35.47;;
18364;SDS011;9309;52.126;11.616;2022-11-30T00:35:11;212.00;;;35.03;;
18364;SDS011;9309;52.126;11.616;2022-11-30T00:37:38;199.40;;;35.70;;
18364;SDS011;9309;52.126;11.616;2022-11-30T00:40:06;204.70;;;35.80;;
18364;SDS011;9309;52.126;11.616;2022-11-30T00:42:34;173.93;;;34.80;;
18364;SDS011;9309;52.126;11.616;2022-11-30T00:45:00;171.40;;;35.73;;
18364;SDS011;9309;52.126;11.616;2022-11-30T00:47:27;148.10;;;35.00;;
18364;SDS011;9309;52.126;11.616;2022-11-30T00:49:54;208.23;;;36.17;;
18364;SDS011;9309;52.126;11.616;2022-11-30T00:52:21;256.13;;;34.53;;
18364;SDS011;9309;52.126;11.616;2022-11-30T00:54:48;192.67;;;34.37;;
18364;SDS011;9309;52.126;11.616;2022-11-30T00:57:16;173.03;;;33.70;;
18364;SDS011;9309;52.126;11.616;2022-11-30T00:59:43;196.33;;;35.03;;
18364;SDS011;9309;52.126;11.616;2022-11-30T01:02:10;165.83;;;34.77;;
18364;SDS011;9309;52.126;11.616;2022-11-30T01:04:37;223.10;;;35.10;;
18364;SDS011;9309;52.126;11.616;2022-11-30T01:07:04;183.40;;;34.43;;
18364;SDS011;9309;52.126;11.616;2022-11-30T01:09:31;162.87;;;35.20;;
18364;SDS011;9309;52.126;11.616;2022-11-30T01:11:57;163.00;;;35.57;;
18364;SDS011;9309;52.126;11.616;2022-11-30T01:14:26;185.93;;;35.07;;
18364;SDS011;9309;52.126;11.616;2022-11-30T01:16:53;207.17;;;35.60;;
18364;SDS011;9309;52.126;11.616;2022-11-30T01:19:19;213.33;;;36.53;;
18364;SDS011;9309;52.126;11.616;2022-11-30T01:21:46;209.40;;;36.20;;
18364;SDS011;9309;52.126;11.616;2022-11-30T01:24:13;202.90;;;35.23;;
18364;SDS011;9309;52.126;11.616;2022-11-30T01:26:40;156.37;;;36.40;;
18364;SDS011;9309;52.126;11.616;2022-11-30T01:29:07;227.77;;;37.40;;
18364;SDS011;9309;52.126;11.616;2022-11-30T01:31:35;269.47;;;36.50;;
18364;SDS011;9309;52.126;11.616;2022-11-30T01:34:02;197.23;;;36.37;;
18364;SDS011;9309;52.126;11.616;2022-11-30T01:36:29;162.73;;;35.30;;
18364;SDS011;9309;52.126;11.616;2022-11-30T01:38:57;196.27;;;35.60;;
18364;SDS011;9309;52.126;11.616;2022-11-30T01:41:24;175.60;;;34.23;;
18364;SDS011;9309;52.126;11.616;2022-11-30T01:43:52;177.97;;;35.67;;
18364;SDS011;9309;52.126;11.616;2022-11-30T01:46:29;219.80;;;37.17;;
18364;SDS011;9309;52.126;11.616;2022-11-30T01:49:04;269.97;;;36.43;;
18364;SDS011;9309;52.126;11.616;2022-11-30T01:51:39;151.13;;;36.80;;
18364;SDS011;9309;52.126;11.616;2022-11-30T01:54:10;184.50;;;35.93;;
18364;SDS011;9309;52.126;11.616;2022-11-30T01:56:39;157.87;;;35.60;;
18364;SDS011;9309;52.126;11.616;2022-11-30T01:59:10;174.47;;;36.07;;
18364;SDS011;9309;52.126;11.616;2022-11-30T02:01:37;215.30;;;36.93;;
18364;SDS011;9309;52.126;11.616;2022-11-30T02:04:07;210.70;;;35.73;;
18364;SDS011;9309;52.126;11.616;2022-11-30T02:06:38;276.03;;;34.57;;
18364;SDS011;9309;52.126;11.616;2022-11-30T02:09:05;265.33;;;36.40;;
18364;SDS011;9309;52.126;11.616;2022-11-30T02:11:33;263.43;;;37.33;;
18364;SDS011;9309;52.126;11.616;2022-11-30T02:14:02;219.63;;;35.00;;
18364;SDS011;9309;52.126;11.616;2022-11-30T02:16:42;223.17;;;36.33;;
18364;SDS011;9309;52.126;11.616;2022-11-30T02:19:29;211.90;;;36.47;;
18364;SDS011;9309;52.126;11.616;2022-11-30T02:22:21;277.00;;;36.80;;
18364;SDS011;9309;52.126;11.616;2022-11-30T02:24:57;286.90;;;38.57;;
18364;SDS011;9309;52.126;11.616;2022-11-30T02:27:38;315.73;;;39.47;;
18364;SDS011;9309;52.126;11.616;2022-11-30T02:30:16;269.67;;;37.33;;
18364;SDS011;9309;52.126;11.616;2022-11-30T02:32:45;276.43;;;40.53;;
18364;SDS011;9309;52.126;11.616;2022-11-30T02:35:16;211.70;;;36.90;;
18364;SDS011;9309;52.126;11.616;2022-11-30T02:37:46;262.90;;;38.20;;
18364;SDS011;9309;52.126;11.616;2022-11-30T02:40:16;284.10;;;39.80;;
18364;SDS011;9309;52.126;11.616;2022-11-30T02:42:44;235.97;;;39.07;;
18364;SDS011;9309;52.126;11.616;2022-11-30T02:45:12;232.30;;;38.30;;
18364;SDS011;9309;52.126;11.616;2022-11-30T02:47:42;274.03;;;38.70;;
18364;SDS011;9309;52.126;11.616;2022-11-30T02:50:14;259.67;;;38.10;;
18364;SDS011;9309;52.126;11.616;2022-11-30T02:52:43;227.30;;;39.97;;
18364;SDS011;9309;52.126;11.616;2022-11-30T02:55:15;200.63;;;36.00;;
18364;SDS011;9309;52.126;11.616;2022-11-30T02:57:44;197.20;;;37.70;;
18364;SDS011;9309;52.126;11.616;2022-11-30T03:00:11;211.13;;;40.33;;
18364;SDS011;9309;52.126;11.616;2022-11-30T03:02:41;182.50;;;38.77;;
18364;SDS011;9309;52.126;11.616;2022-11-30T03:05:08;230.50;;;38.03;;
18364;SDS011;9309;52.126;11.616;2022-11-30T03:07:35;239.77;;;38.67;;
18364;SDS011;9309;52.126;11.616;2022-11-30T03:10:02;198.00;;;39.33;;
18364;SDS011;9309;52.126;11.616;2022-11-30T03:12:29;201.63;;;40.63;;
18364;SDS011;9309;52.126;11.616;2022-11-30T03:14:56;206.87;;;37.30;;
18364;SDS011;9309;52.126;11.616;2022-11-30T03:17:23;200.43;;;40.50;;
18364;SDS011;9309;52.126;11.616;2022-11-30T03:19:51;189.63;;;42.00;;
18364;SDS011;9309;52.126;11.616;2022-11-30T03:22:18;179.27;;;38.90;;
18364;SDS011;9309;52.126;11.616;2022-11-30T03:24:45;180.67;;;41.17;;
18364;SDS011;9309;52.126;11.616;2022-11-30T03:27:12;190.53;;;39.77;;
18364;SDS011;9309;52.126;11.616;2022-11-30T03:29:39;176.47;;;38.27;;
18364;SDS011;9309;52.126;11.616;2022-11-30T03:32:05;175.37;;;38.27;;
18364;SDS011;9309;52.126;11.616;2022-11-30T03:34:32;150.17;;;36.07;;
18364;SDS011;9309;52.126;11.616;2022-11-30T03:37:01;180.57;;;38.47;;
18364;SDS011;9309;52.126;11.616;2022-11-30T03:39:27;158.10;;;38.20;;
18364;SDS011;9309;52.126;11.616;2022-11-30T03:41:54;181.83;;;37.63;;
18364;SDS011;9309;52.126;11.616;2022-11-30T03:44:21;169.73;;;36.27;;
18364;SDS011;9309;52.126;11.616;2022-11-30T03:46:48;162.37;;;36.70;;
18364;SDS011;9309;52.126;11.616;2022-11-30T03:49:14;182.87;;;40.00;;
18364;SDS011;9309;52.126;11.616;2022-11-30T03:51:41;188.57;;;41.13;;
18364;SDS011;9309;52.126;11.616;2022-11-30T03:54:09;179.90;;;36.97;;
18364;SDS011;9309;52.126;11.616;2022-11-30T03:56:36;199.30;;;40.13;;
18364;SDS011;9309;52.126;11.616;2022-11-30T03:59:03;185.20;;;39.20;;
18364;SDS011;9309;52.126;11.616;2022-11-30T04:01:29;169.27;;;40.60;;
18364;SDS011;9309;52.126;11.616;2022-11-30T04:03:57;185.30;;;39.00;;
18364;SDS011;9309;52.126;11.616;2022-11-30T04:06:23;182.57;;;39.23;;
18364;SDS011;9309;52.126;11.616;2022-11-30T04:08:50;192.90;;;38.93;;
18364;SDS011;9309;52.126;11.616;2022-11-30T04:11:18;189.90;;;40.57;;
18364;SDS011;9309;52.126;11.616;2022-11-30T04:13:45;202.47;;;41.47;;
18364;SDS011;9309;52.126;11.616;2022-11-30T04:16:12;203.73;;;40.30;;
18364;SDS011;9309;52.126;11.616;2022-11-30T04:18:38;177.73;;;40.70;;
18364;SDS011;9309;52.126;11.616;2022-11-30T04:21:05;178.30;;;38.13;;
18364;SDS011;9309;52.126;11.616;2022-11-30T04:23:34;183.97;;;40.37;;
18364;SDS011;9309;52.126;11.616;2022-11-30T04:26:02;177.40;;;38.57;;
18364;SDS011;9309;52.126;11.616;2022-11-30T04:28:31;173.60;;;40.03;;
18364;SDS011;9309;52.126;11.616;2022-11-30T04:30:58;195.60;;;40.73;;
18364;SDS011;9309;52.126;11.616;2022-11-30T04:33:26;192.63;;;42.40;;
18364;SDS011;9309;52.126;11.616;2022-11-30T04:35:55;179.00;;;41.90;;
18364;SDS011;9309;52.126;11.616;2022-11-30T04:38:24;175.50;;;39.50;;
18364;SDS011;9309;52.126;11.616;2022-11-30T04:40:51;182.63;;;41.37;;
18364;SDS011;9309;52.126;11.616;2022-11-30T04:43:20;166.23;;;40.63;;
18364;SDS011;9309;52.126;11.616;2022-11-30T04:45:48;166.23;;;38.30;;
18364;SDS011;9309;52.126;11.616;2022-11-30T04:48:16;169.87;;;42.30;;
18364;SDS011;9309;52.126;11.616;2022-11-30T04:50:43;166.63;;;40.43;;
18364;SDS011;9309;52.126;11.616;2022-11-30T04:53:10;153.40;;;42.37;;
18364;SDS011;9309;52.126;11.616;2022-11-30T04:55:37;165.30;;;40.00;;
18364;SDS011;9309;52.126;11.616;2022-11-30T04:58:04;182.33;;;40.10;;
18364;SDS011;9309;52.126;11.616;2022-11-30T05:00:30;161.50;;;40.83;;
18364;SDS011;9309;52.126;11.616;2022-11-30T05:02:59;181.00;;;40.47;;
18364;SDS011;9309;52.126;11.616;2022-11-30T05:05:26;151.87;;;41.13;;
18364;SDS011;9309;52.126;11.616;2022-11-30T05:07:53;166.13;;;40.87;;
18364;SDS011;9309;52.126;11.616;2022-11-30T05:10:21;158.27;;;40.47;;
18364;SDS011;9309;52.126;11.616;2022-11-30T05:12:48;152.93;;;40.20;;
18364;SDS011;9309;52.126;11.616;2022-11-30T05:15:16;162.73;;;41.93;;
18364;SDS011;9309;52.126;11.616;2022-11-30T05:17:43;165.50;;;40.30;;
18364;SDS011;9309;52.126;11.616;2022-11-30T05:20:11;165.27;;;41.97;;
18364;SDS011;9309;52.126;11.616;2022-11-30T05:22:38;155.33;;;40.37;;
18364;SDS011;9309;52.126;11.616;2022-11-30T05:25:05;166.97;;;40.57;;
18364;SDS011;9309;52.126;11.616;2022-11-30T05:27:33;151.93;;;37.97;;
18364;SDS011;9309;52.126;11.616;2022-11-30T05:30:00;154.30;;;39.20;;
18364;SDS011;9309;52.126;11.616;2022-11-30T05:32:27;160.33;;;41.50;;
18364;SDS011;9309;52.126;11.616;2022-11-30T05:34:54;146.67;;;39.93;;
18364;SDS011;9309;52.126;11.616;2022-11-30T05:37:22;141.57;;;37.80;;
18364;SDS011;9309;52.126;11.616;2022-11-30T05:39:49;155.57;;;40.63;;
18364;SDS011;9309;52.126;11.616;2022-11-30T05:42:15;155.93;;;40.10;;
18364;SDS011;9309;52.126;11.616;2022-11-30T05:44:42;142.87;;;39.57;;
18364;SDS011;9309;52.126;11.616;2022-11-30T05:47:09;152.33;;;38.47;;
18364;SDS011;9309;52.126;11.616;2022-11-30T05:49:36;151.87;;;39.00;;
18364;SDS011;9309;52.126;11.616;2022-11-30T05:52:03;142.30;;;38.70;;
18364;SDS011;9309;52.126;11.616;2022-11-30T05:54:31;135.43;;;37.10;;
18364;SDS011;9309;52.126;11.616;2022-11-30T05:56:58;130.10;;;36.43;;
18364;SDS011;9309;52.126;11.616;2022-11-30T05:59:25;123.57;;;36.50;;
18364;SDS011;9309;52.126;11.616;2022-11-30T06:01:52;132.43;;;37.17;;
18364;SDS011;9309;52.126;11.616;2022-11-30T06:04:19;134.10;;;37.07;;
18364;SDS011;9309;52.126;11.616;2022-11-30T06:06:46;150.27;;;40.37;;
18364;SDS011;9309;52.126;11.616;2022-11-30T06:09:13;134.20;;;36.33;;
18364;SDS011;9309;52.126;11.616;2022-11-30T06:11:41;154.90;;;38.63;;
18364;SDS011;9309;52.126;11.616;2022-11-30T06:14:08;147.70;;;37.43;;
18364;SDS011;9309;52.126;11.616;2022-11-30T06:16:36;140.03;;;39.63;;
18364;SDS011;9309;52.126;11.616;2022-11-30T06:19:03;147.83;;;38.97;;
18364;SDS011;9309;52.126;11.616;2022-11-30T06:21:30;138.63;;;36.93;;
18364;SDS011;9309;52.126;11.616;2022-11-30T06:23:57;116.77;;;36.43;;
18364;SDS011;9309;52.126;11.616;2022-11-30T06:26:23;135.07;;;38.07;;
18364;SDS011;9309;52.126;11.616;2022-11-30T06:28:51;142.27;;;37.47;;
18364;SDS011;9309;52.126;11.616;2022-11-30T06:31:18;143.83;;;39.40;;
18364;SDS011;9309;52.126;11.616;2022-11-30T06:33:45;145.87;;;39.70;;
18364;SDS011;9309;52.126;11.616;2022-11-30T06:36:12;152.80;;;39.67;;
18364;SDS011;9309;52.126;11.616;2022-11-30T06:38:39;155.20;;;40.50;;
18364;SDS011;9309;52.126;11.616;2022-11-30T06:41:07;155.07;;;41.47;;
18364;SDS011;9309;52.126;11.616;2022-11-30T06:43:37;150.07;;;40.17;;
18364;SDS011;9309;52.126;11.616;2022-11-30T06:46:06;127.67;;;39.40;;
18364;SDS011;9309;52.126;11.616;2022-11-30T06:48:33;142.03;;;38.43;;
18364;SDS011;9309;52.126;11.616;2022-11-30T06:51:03;150.27;;;40.63;;
18364;SDS011;9309;52.126;11.616;2022-11-30T06:53:30;160.50;;;42.20;;
18364;SDS011;9309;52.126;11.616;2022-11-30T06:55:57;166.40;;;39.93;;
18364;SDS011;9309;52.126;11.616;2022-11-30T06:58:24;149.40;;;40.80;;
18364;SDS011;9309;52.126;11.616;2022-11-30T07:00:51;144.27;;;39.80;;
18364;SDS011;9309;52.126;11.616;2022-11-30T07:03:19;155.47;;;41.33;;
18364;SDS011;9309;52.126;11.616;2022-11-30T07:05:46;150.30;;;39.83;;
18364;SDS011;9309;52.126;11.616;2022-11-30T07:08:13;150.40;;;41.07;;
18364;SDS011;9309;52.126;11.616;2022-11-30T07:10:40;148.47;;;40.73;;
18364;SDS011;9309;52.126;11.616;2022-11-30T07:13:08;145.53;;;40.43;;
18364;SDS011;9309;52.126;11.616;2022-11-30T07:15:36;142.80;;;41.37;;
18364;SDS011;9309;52.126;11.616;2022-11-30T07:18:03;155.40;;;40.50;;
18364;SDS011;9309;52.126;11.616;2022-11-30T07:20:31;175.60;;;42.63;;
18364;SDS011;9309;52.126;11.616;2022-11-30T07:22:58;166.97;;;42.63;;
18364;SDS011;9309;52.126;11.616;2022-11-30T07:25:45;152.90;;;41.13;;
18364;SDS011;9309;52.126;11.616;2022-11-30T07:28:30;166.03;;;43.40;;
18364;SDS011;9309;52.126;11.616;2022-11-30T07:30:57;157.30;;;42.97;;
18364;SDS011;9309;52.126;11.616;2022-11-30T07:33:24;156.20;;;42.20;;
18364;SDS011;9309;52.126;11.616;2022-11-30T07:35:52;157.63;;;40.63;;
18364;SDS011;9309;52.126;11.616;2022-11-30T07:38:19;156.70;;;42.13;;
18364;SDS011;9309;52.126;11.616;2022-11-30T07:40:46;160.10;;;41.20;;
18364;SDS011;9309;52.126;11.616;2022-11-30T07:43:12;168.93;;;42.53;;
18364;SDS011;9309;52.126;11.616;2022-11-30T07:45:39;154.10;;;42.80;;
18364;SDS011;9309;52.126;11.616;2022-11-30T07:48:06;158.50;;;42.73;;
18364;SDS011;9309;52.126;11.616;2022-11-30T07:50:34;155.60;;;43.60;;
18364;SDS011;9309;52.126;11.616;2022-11-30T07:53:02;149.50;;;39.90;;
18364;SDS011;9309;52.126;11.616;2022-11-30T07:55:29;151.07;;;40.97;;
18364;SDS011;9309;52.126;11.616;2022-11-30T07:57:56;142.93;;;39.97;;
18364;SDS011;9309;52.126;11.616;2022-11-30T08:00:23;136.40;;;41.20;;
18364;SDS011;9309;52.126;11.616;2022-11-30T08:02:50;139.80;;;39.63;;
18364;SDS011;9309;52.126;11.616;2022-11-30T08:05:17;134.87;;;42.37;;
18364;SDS011;9309;52.126;11.616;2022-11-30T08:07:44;125.30;;;39.40;;
18364;SDS011;9309;52.126;11.616;2022-11-30T08:10:12;128.43;;;38.97;;
18364;SDS011;9309;52.126;11.616;2022-11-30T08:12:38;126.13;;;39.20;;
18364;SDS011;9309;52.126;11.616;2022-11-30T08:15:06;135.03;;;39.33;;
18364;SDS011;9309;52.126;11.616;2022-11-30T08:17:33;125.70;;;37.23;;
18364;SDS011;9309;52.126;11.616;2022-11-30T08:20:00;122.97;;;38.63;;
18364;SDS011;9309;52.126;11.616;2022-11-30T08:22:27;119.60;;;37.07;;
18364;SDS011;9309;52.126;11.616;2022-11-30T08:24:54;115.03;;;36.57;;
18364;SDS011;9309;52.126;11.616;2022-11-30T08:27:22;100.37;;;35.80;;
18364;SDS011;9309;52.126;11.616;2022-11-30T08:29:48;107.27;;;35.23;;
18364;SDS011;9309;52.126;11.616;2022-11-30T08:32:15;108.07;;;37.60;;
18364;SDS011;9309;52.126;11.616;2022-11-30T08:34:42;110.20;;;36.07;;
18364;SDS011;9309;52.126;11.616;2022-11-30T08:37:09;107.57;;;36.33;;
18364;SDS011;9309;52.126;11.616;2022-11-30T08:39:36;101.00;;;34.13;;
18364;SDS011;9309;52.126;11.616;2022-11-30T08:42:03;104.57;;;34.73;;
18364;SDS011;9309;52.126;11.616;2022-11-30T08:44:31;106.33;;;33.67;;
18364;SDS011;9309;52.126;11.616;2022-11-30T08:46:58;107.37;;;35.30;;
18364;SDS011;9309;52.126;11.616;2022-11-30T08:49:25;100.50;;;35.43;;
18364;SDS011;9309;52.126;11.616;2022-11-30T08:51:52;98.37;;;34.90;;
18364;SDS011;9309;52.126;11.616;2022-11-30T08:54:20;95.57;;;33.17;;
18364;SDS011;9309;52.126;11.616;2022-11-30T08:56:47;104.20;;;35.97;;
18364;SDS011;9309;52.126;11.616;2022-11-30T08:59:13;106.53;;;35.03;;
18364;SDS011;9309;52.126;11.616;2022-11-30T09:01:41;97.20;;;33.97;;
18364;SDS011;9309;52.126;11.616;2022-11-30T09:04:08;96.17;;;33.50;;
18364;SDS011;9309;52.126;11.616;2022-11-30T09:06:35;93.70;;;33.53;;
18364;SDS011;9309;52.126;11.616;2022-11-30T09:09:02;89.47;;;33.07;;
18364;SDS011;9309;52.126;11.616;2022-11-30T09:11:29;87.97;;;32.50;;
18364;SDS011;9309;52.126;11.616;2022-11-30T09:13:58;83.87;;;31.93;;
18364;SDS011;9309;52.126;11.616;2022-11-30T09:16:26;85.17;;;31.60;;
18364;SDS011;9309;52.126;11.616;2022-11-30T09:18:55;90.07;;;30.93;;
18364;SDS011;9309;52.126;11.616;2022-11-30T09:21:22;93.37;;;32.10;;
18364;SDS011;9309;52.126;11.616;2022-11-30T09:23:51;88.50;;;32.03;;
18364;SDS011;9309;52.126;11.616;2022-11-30T09:26:18;89.60;;;31.90;;
18364;SDS011;9309;52.126;11.616;2022-11-30T09:28:48;79.27;;;30.50;;
18364;SDS011;9309;52.126;11.616;2022-11-30T09:31:15;86.80;;;33.13;;
18364;SDS011;9309;52.126;11.616;2022-11-30T09:33:43;85.20;;;31.27;;
18364;SDS011;9309;52.126;11.616;2022-11-30T09:36:12;85.77;;;31.47;;
18364;SDS011;9309;52.126;11.616;2022-11-30T09:38:40;84.77;;;31.53;;
18364;SDS011;9309;52.126;11.616;2022-11-30T09:41:13;86.80;;;31.80;;
18364;SDS011;9309;52.126;11.616;2022-11-30T09:44:12;83.73;;;32.37;;
18364;SDS011;9309;52.126;11.616;2022-11-30T09:46:48;79.47;;;29.70;;
18364;SDS011;9309;52.126;11.616;2022-11-30T09:49:20;79.43;;;30.60;;
18364;SDS011;9309;52.126;11.616;2022-11-30T09:51:51;87.87;;;32.30;;
18364;SDS011;9309;52.126;11.616;2022-11-30T09:54:21;81.63;;;29.90;;
18364;SDS011;9309;52.126;11.616;2022-11-30T09:57:00;88.57;;;31.33;;
18364;SDS011;9309;52.126;11.616;2022-11-30T09:59:30;77.90;;;29.43;;
18364;SDS011;9309;52.126;11.616;2022-11-30T10:02:05;81.63;;;31.17;;
18364;SDS011;9309;52.126;11.616;2022-11-30T10:04:39;82.27;;;31.13;;
18364;SDS011;9309;52.126;11.616;2022-11-30T10:07:09;85.53;;;29.70;;
18364;SDS011;9309;52.126;11.616;2022-11-30T10:09:44;81.93;;;31.73;;
18364;SDS011;9309;52.126;11.616;2022-11-30T10:12:23;77.20;;;28.80;;
18364;SDS011;9309;52.126;11.616;2022-11-30T10:14:56;75.40;;;29.43;;
18364;SDS011;9309;52.126;11.616;2022-11-30T10:17:41;72.00;;;28.20;;
18364;SDS011;9309;52.126;11.616;2022-11-30T10:20:20;72.37;;;29.20;;
18364;SDS011;9309;52.126;11.616;2022-11-30T10:23:07;74.97;;;29.23;;
18364;SDS011;9309;52.126;11.616;2022-11-30T10:25:46;78.47;;;29.17;;
18364;SDS011;9309;52.126;11.616;2022-11-30T10:28:22;69.57;;;28.37;;
18364;SDS011;9309;52.126;11.616;2022-11-30T10:30:59;65.13;;;27.07;;
18364;SDS011;9309;52.126;11.616;2022-11-30T10:33:28;75.07;;;28.93;;
18364;SDS011;9309;52.126;11.616;2022-11-30T10:36:02;67.07;;;27.00;;
18364;SDS011;9309;52.126;11.616;2022-11-30T10:38:40;65.83;;;27.90;;
18364;SDS011;9309;52.126;11.616;2022-11-30T10:41:11;70.87;;;27.70;;
18364;SDS011;9309;52.126;11.616;2022-11-30T10:43:43;65.73;;;26.53;;
18364;SDS011;9309;52.126;11.616;2022-11-30T10:46:17;70.90;;;28.27;;
18364;SDS011;9309;52.126;11.616;2022-11-30T10:48:47;70.30;;;27.00;;
18364;SDS011;9309;52.126;11.616;2022-11-30T10:51:16;63.83;;;27.27;;
18364;SDS011;9309;52.126;11.616;2022-11-30T10:53:45;61.47;;;27.13;;
18364;SDS011;9309;52.126;11.616;2022-11-30T10:56:12;76.17;;;27.57;;
18364;SDS011;9309;52.126;11.616;2022-11-30T10:58:40;63.47;;;27.20;;
18364;SDS011;9309;52.126;11.616;2022-11-30T11:01:28;67.67;;;26.77;;
18364;SDS011;9309;52.126;11.616;2022-11-30T11:04:08;66.43;;;27.10;;
18364;SDS011;9309;52.126;11.616;2022-11-30T11:06:40;64.10;;;26.00;;
18364;SDS011;9309;52.126;11.616;2022-11-30T11:12:11;70.53;;;26.30;;
18364;SDS011;9309;52.126;11.616;2022-11-30T11:14:40;65.63;;;26.47;;
18364;SDS011;9309;52.126;11.616;2022-11-30T11:17:19;63.47;;;26.47;;
18364;SDS011;9309;52.126;11.616;2022-11-30T11:19:48;60.53;;;24.87;;
18364;SDS011;9309;52.126;11.616;2022-11-30T11:22:16;60.77;;;25.90;;
18364;SDS011;9309;52.126;11.616;2022-11-30T11:24:46;67.27;;;25.43;;
18364;SDS011;9309;52.126;11.616;2022-11-30T11:27:18;61.43;;;25.43;;
18364;SDS011;9309;52.126;11.616;2022-11-30T11:29:55;57.30;;;23.83;;
18364;SDS011;9309;52.126;11.616;2022-11-30T11:32:25;57.13;;;24.57;;
18364;SDS011;9309;52.126;11.616;2022-11-30T11:34:54;61.17;;;25.57;;
18364;SDS011;9309;52.126;11.616;2022-11-30T11:37:22;55.93;;;24.40;;
18364;SDS011;9309;52.126;11.616;2022-11-30T11:40:08;61.80;;;25.97;;
18364;SDS011;9309;52.126;11.616;2022-11-30T11:42:40;62.67;;;25.13;;
18364;SDS011;9309;52.126;11.616;2022-11-30T11:45:14;63.77;;;24.23;;
18364;SDS011;9309;52.126;11.616;2022-11-30T11:47:42;56.93;;;23.47;;
18364;SDS011;9309;52.126;11.616;2022-11-30T11:50:20;62.83;;;25.23;;
18364;SDS011;9309;52.126;11.616;2022-11-30T11:53:05;56.70;;;23.63;;
18364;SDS011;9309;52.126;11.616;2022-11-30T11:55:48;66.43;;;26.30;;
18364;SDS011;9309;52.126;11.616;2022-11-30T11:58:18;56.50;;;25.93;;
18364;SDS011;9309;52.126;11.616;2022-11-30T12:00:52;62.30;;;26.67;;
18364;SDS011;9309;52.126;11.616;2022-11-30T12:03:23;60.43;;;25.47;;
18364;SDS011;9309;52.126;11.616;2022-11-30T12:05:57;55.43;;;24.27;;
18364;SDS011;9309;52.126;11.616;2022-11-30T12:08:29;64.20;;;26.23;;
18364;SDS011;9309;52.126;11.616;2022-11-30T12:11:06;55.33;;;23.57;;
18364;SDS011;9309;52.126;11.616;2022-11-30T12:13:37;68.63;;;26.87;;
18364;SDS011;9309;52.126;11.616;2022-11-30T12:16:08;58.90;;;24.30;;
18364;SDS011;9309;52.126;11.616;2022-11-30T12:19:01;57.80;;;25.40;;
18364;SDS011;9309;52.126;11.616;2022-11-30T12:21:36;63.87;;;25.93;;
18364;SDS011;9309;52.126;11.616;2022-11-30T12:24:19;60.90;;;25.10;;
18364;SDS011;9309;52.126;11.616;2022-11-30T12:27:00;64.00;;;25.83;;
18364;SDS011;9309;52.126;11.616;2022-11-30T12:29:38;55.30;;;23.97;;
18364;SDS011;9309;52.126;11.616;2022-11-30T12:32:17;68.60;;;25.77;;
18364;SDS011;9309;52.126;11.616;2022-11-30T12:34:56;59.80;;;25.53;;
18364;SDS011;9309;52.126;11.616;2022-11-30T12:37:33;61.80;;;25.33;;
18364;SDS011;9309;52.126;11.616;2022-11-30T12:40:12;63.27;;;25.43;;
18364;SDS011;9309;52.126;11.616;2022-11-30T12:42:52;63.47;;;25.53;;
18364;SDS011;9309;52.126;11.616;2022-11-30T12:45:27;66.70;;;27.13;;
18364;SDS011;9309;52.126;11.616;2022-11-30T12:48:00;64.70;;;25.70;;
18364;SDS011;9309;52.126;11.616;2022-11-30T12:50:36;59.77;;;24.57;;
18364;SDS011;9309;52.126;11.616;2022-11-30T12:53:16;58.20;;;23.50;;
18364;SDS011;9309;52.126;11.616;2022-11-30T12:55:52;63.43;;;25.20;;
18364;SDS011;9309;52.126;11.616;2022-11-30T12:58:29;60.13;;;24.30;;
18364;SDS011;9309;52.126;11.616;2022-11-30T13:01:07;58.60;;;25.60;;
18364;SDS011;9309;52.126;11.616;2022-11-30T13:03:44;62.60;;;25.07;;
18364;SDS011;9309;52.126;11.616;2022-11-30T13:06:16;64.20;;;26.27;;
18364;SDS011;9309;52.126;11.616;2022-11-30T13:08:54;66.37;;;25.73;;
18364;SDS011;9309;52.126;11.616;2022-11-30T13:11:26;63.03;;;26.33;;
18364;SDS011;9309;52.126;11.616;2022-11-30T13:13:58;62.97;;;26.80;;
18364;SDS011;9309;52.126;11.616;2022-11-30T13:16:25;64.30;;;25.93;;
18364;SDS011;9309;52.126;11.616;2022-11-30T13:18:57;65.87;;;27.23;;
18364;SDS011;9309;52.126;11.616;2022-11-30T13:21:29;67.23;;;27.17;;
18364;SDS011;9309;52.126;11.616;2022-11-30T13:24:00;63.13;;;24.90;;
18364;SDS011;9309;52.126;11.616;2022-11-30T13:26:35;61.87;;;26.40;;
18364;SDS011;9309;52.126;11.616;2022-11-30T13:29:16;61.77;;;25.60;;
18364;SDS011;9309;52.126;11.616;2022-11-30T13:31:54;59.37;;;25.07;;
18364;SDS011;9309;52.126;11.616;2022-11-30T13:34:30;66.87;;;25.60;;
18364;SDS011;9309;52.126;11.616;2022-11-30T13:37:01;55.43;;;24.20;;
18364;SDS011;9309;52.126;11.616;2022-11-30T13:39:34;65.07;;;25.77;;
18364;SDS011;9309;52.126;11.616;2022-11-30T13:42:18;65.07;;;25.93;;
18364;SDS011;9309;52.126;11.616;2022-11-30T13:44:59;60.50;;;25.90;;
18364;SDS011;9309;52.126;11.616;2022-11-30T13:47:59;68.13;;;25.43;;
18364;SDS011;9309;52.126;11.616;2022-11-30T13:50:45;62.43;;;24.87;;
18364;SDS011;9309;52.126;11.616;2022-11-30T13:55:57;59.70;;;25.13;;
18364;SDS011;9309;52.126;11.616;2022-11-30T13:58:27;65.37;;;25.40;;
18364;SDS011;9309;52.126;11.616;2022-11-30T14:07:02;59.37;;;24.47;;
18364;SDS011;9309;52.126;11.616;2022-11-30T14:12:43;62.33;;;25.70;;
18364;SDS011;9309;52.126;11.616;2022-11-30T14:15:27;59.73;;;23.17;;
18364;SDS011;9309;52.126;11.616;2022-11-30T14:18:15;52.67;;;23.07;;
18364;SDS011;9309;52.126;11.616;2022-11-30T14:20:46;62.73;;;25.27;;
18364;SDS011;9309;52.126;11.616;2022-11-30T14:23:17;62.13;;;24.90;;
18364;SDS011;9309;52.126;11.616;2022-11-30T14:25:48;57.73;;;25.00;;
18364;SDS011;9309;52.126;11.616;2022-11-30T14:28:17;61.50;;;25.60;;
18364;SDS011;9309;52.126;11.616;2022-11-30T14:30:48;54.57;;;23.03;;
18364;SDS011;9309;52.126;11.616;2022-11-30T14:33:18;64.93;;;27.07;;
18364;SDS011;9309;52.126;11.616;2022-11-30T14:35:50;58.63;;;24.27;;
18364;SDS011;9309;52.126;11.616;2022-11-30T14:38:22;60.90;;;26.00;;
18364;SDS011;9309;52.126;11.616;2022-11-30T14:40:53;58.63;;;25.13;;
18364;SDS011;9309;52.126;11.616;2022-11-30T14:43:20;63.67;;;24.57;;
18364;SDS011;9309;52.126;11.616;2022-11-30T14:45:56;62.47;;;25.30;;